createdAt,value
2022-09-20T00:00:49.025Z,10.23
2022-09-20T00:01:48.937Z,10.23
2022-09-20T00:02:48.930Z,10.26
2022-09-20T00:03:48.909Z,10.23
2022-09-20T00:04:48.959Z,10.23
2022-09-20T00:05:48.916Z,10.22
2022-09-20T00:06:48.890Z,10.20
2022-09-20T00:07:48.891Z,10.20
2022-09-20T00:08:48.881Z,10.20
2022-09-20T00:09:48.850Z,10.18
2022-09-20T00:10:48.860Z,10.18
2022-09-20T00:11:48.829Z,10.17
2022-09-20T00:12:48.850Z,10.20
2022-09-20T00:13:48.840Z,10.18
2022-09-20T00:14:48.804Z,10.18
2022-09-20T00:15:48.809Z,10.15
2022-09-20T00:16:48.837Z,10.11
2022-09-20T00:17:48.769Z,10.14
2022-09-20T00:18:48.791Z,10.14
2022-09-20T00:19:48.770Z,10.12
2022-09-20T00:20:48.743Z,10.11
2022-09-20T00:21:48.724Z,10.08
2022-09-20T00:22:48.742Z,10.11
2022-09-20T00:23:48.722Z,10.08
2022-09-20T00:24:49.192Z,10.09
2022-09-20T00:25:48.699Z,10.09
2022-09-20T00:26:48.689Z,10.07
2022-09-20T00:27:48.662Z,10.05
2022-09-20T00:28:48.678Z,10.07
2022-09-20T00:29:48.642Z,10.07
2022-09-20T00:30:48.644Z,10.07
2022-09-20T00:31:48.634Z,10.04
2022-09-20T00:32:48.622Z,10.02
2022-09-20T00:33:48.623Z,10.01
2022-09-20T00:34:48.597Z,10.02
2022-09-20T00:35:48.573Z,9.99
2022-09-20T00:36:48.575Z,10.05
2022-09-20T00:37:48.557Z,10.01
2022-09-20T00:38:48.576Z,10.02
2022-09-20T00:39:48.624Z,9.97
2022-09-20T00:40:48.535Z,9.96
2022-09-20T00:41:48.527Z,9.99
2022-09-20T00:42:48.514Z,9.93
2022-09-20T00:43:48.519Z,9.93
2022-09-20T00:44:48.495Z,9.94
2022-09-20T00:45:48.545Z,9.93
2022-09-20T00:46:48.476Z,9.93
2022-09-20T00:47:48.456Z,9.93
2022-09-20T00:48:48.466Z,9.93
2022-09-20T00:49:48.438Z,9.91
2022-09-20T00:50:48.436Z,9.90
2022-09-20T00:51:48.427Z,9.89
2022-09-20T00:52:48.415Z,9.93
2022-09-20T00:53:48.416Z,9.89
2022-09-20T00:54:48.387Z,9.90
2022-09-20T00:55:48.377Z,9.86
2022-09-20T00:56:48.401Z,9.90
2022-09-20T00:57:48.358Z,9.90
2022-09-20T00:58:48.352Z,9.86
2022-09-20T00:59:48.335Z,9.89
2022-09-20T01:00:48.361Z,9.86
2022-09-20T01:01:48.311Z,9.86
2022-09-20T01:02:48.347Z,9.86
2022-09-20T01:03:48.311Z,9.87
2022-09-20T01:04:48.277Z,9.86
2022-09-20T01:05:48.268Z,9.89
2022-09-20T01:06:48.249Z,9.84
2022-09-20T01:07:48.250Z,9.84
2022-09-20T01:08:48.268Z,9.83
2022-09-20T01:09:48.405Z,9.86
2022-09-20T01:10:48.321Z,9.81
2022-09-20T01:11:48.209Z,9.81
2022-09-20T01:12:48.199Z,9.83
2022-09-20T01:13:48.220Z,9.79
2022-09-20T01:14:48.178Z,9.81
2022-09-20T01:15:48.171Z,9.79
2022-09-20T01:16:48.255Z,9.79
2022-09-20T01:17:48.144Z,9.79
2022-09-20T01:18:48.172Z,9.76
2022-09-20T01:19:48.221Z,9.78
2022-09-20T01:20:48.121Z,9.78
2022-09-20T01:21:48.110Z,9.78
2022-09-20T01:22:48.102Z,9.79
2022-09-20T01:23:48.119Z,9.76
2022-09-20T01:24:48.068Z,9.78
2022-09-20T01:25:48.068Z,9.76
2022-09-20T01:26:48.059Z,9.78
2022-09-20T01:27:48.050Z,9.79
2022-09-20T01:28:48.053Z,9.79
2022-09-20T01:29:48.031Z,9.78
2022-09-20T01:30:48.012Z,9.79
2022-09-20T01:31:48.074Z,9.78
2022-09-20T01:32:47.994Z,9.76
2022-09-20T01:33:47.992Z,9.75
2022-09-20T01:34:47.992Z,9.76
2022-09-20T01:35:47.952Z,9.72
2022-09-20T01:36:48.016Z,9.75
2022-09-20T01:37:47.944Z,9.74
2022-09-20T01:38:47.948Z,9.74
2022-09-20T01:39:47.926Z,9.74
2022-09-20T01:40:47.964Z,9.75
2022-09-20T01:41:47.894Z,9.74
2022-09-20T01:42:47.894Z,9.74
2022-09-20T01:43:47.885Z,9.71
2022-09-20T01:44:47.864Z,9.75
2022-09-20T01:45:47.938Z,9.72
2022-09-20T01:46:47.845Z,9.72
2022-09-20T01:47:47.836Z,9.71
2022-09-20T01:48:47.834Z,9.71
2022-09-20T01:49:47.815Z,9.71
2022-09-20T01:50:47.825Z,9.72
2022-09-20T01:51:47.794Z,9.71
2022-09-20T01:52:47.793Z,9.74
2022-09-20T01:53:47.775Z,9.69
2022-09-20T01:54:47.768Z,9.72
2022-09-20T01:55:47.767Z,9.69
2022-09-20T01:56:47.743Z,9.74
2022-09-20T01:57:47.738Z,9.69
2022-09-20T01:58:57.422Z,9.71
2022-09-20T01:59:48.713Z,9.71
2022-09-20T02:00:47.738Z,9.71
2022-09-20T02:01:47.705Z,9.71
2022-09-20T02:02:47.747Z,9.68
2022-09-20T02:03:47.668Z,9.69
2022-09-20T02:04:47.690Z,9.69
2022-09-20T02:05:47.663Z,9.69
2022-09-20T02:06:47.641Z,9.68
2022-09-20T02:07:47.629Z,9.71
2022-09-20T02:08:47.628Z,9.68
2022-09-20T02:09:47.609Z,9.71
2022-09-20T02:10:47.636Z,9.69
2022-09-20T02:11:47.587Z,9.72
2022-09-20T02:12:47.584Z,9.69
2022-09-20T02:13:47.568Z,9.69
2022-09-20T02:14:47.575Z,9.68
2022-09-20T02:15:47.546Z,9.66
2022-09-20T02:16:47.572Z,9.66
2022-09-20T02:17:47.536Z,9.66
2022-09-20T02:18:47.530Z,9.66
2022-09-20T02:19:47.500Z,9.66
2022-09-20T02:20:47.501Z,9.65
2022-09-20T02:21:47.481Z,9.65
2022-09-20T02:22:47.628Z,9.68
2022-09-20T02:23:47.471Z,9.65
2022-09-20T02:24:47.449Z,9.69
2022-09-20T02:25:47.452Z,9.65
2022-09-20T02:26:47.451Z,9.65
2022-09-20T02:27:47.420Z,9.65
2022-09-20T02:28:47.413Z,9.69
2022-09-20T02:29:47.421Z,9.71
2022-09-20T02:30:47.393Z,9.68
2022-09-20T02:31:47.467Z,9.68
2022-09-20T02:32:47.391Z,9.71
2022-09-20T02:33:47.393Z,9.71
2022-09-20T02:34:47.352Z,9.69
2022-09-20T02:35:47.343Z,9.71
2022-09-20T02:36:47.333Z,9.72
2022-09-20T02:37:47.324Z,9.71
2022-09-20T02:38:47.323Z,9.72
2022-09-20T02:39:47.461Z,9.72
2022-09-20T02:40:47.478Z,9.74
2022-09-20T02:41:47.538Z,9.76
2022-09-20T02:42:48.277Z,9.71
2022-09-20T02:43:47.404Z,9.74
2022-09-20T02:44:47.253Z,9.74
2022-09-20T02:45:47.370Z,9.75
2022-09-20T02:46:47.225Z,9.76
2022-09-20T02:47:47.235Z,9.75
2022-09-20T02:48:47.204Z,9.75
2022-09-20T02:49:47.194Z,9.75
2022-09-20T02:50:47.175Z,9.76
2022-09-20T02:51:47.196Z,9.78
2022-09-20T02:52:47.204Z,9.79
2022-09-20T02:53:47.163Z,9.76
2022-09-20T02:54:47.137Z,9.81
2022-09-20T02:55:47.145Z,9.75
2022-09-20T02:56:47.124Z,9.78
2022-09-20T02:57:47.105Z,9.78
2022-09-20T02:58:47.096Z,9.78
2022-09-20T02:59:47.087Z,9.78
2022-09-20T03:00:47.150Z,9.78
2022-09-20T03:01:47.144Z,9.79
2022-09-20T03:02:47.062Z,9.79
2022-09-20T03:03:47.045Z,9.78
2022-09-20T03:04:47.045Z,9.76
2022-09-20T03:05:47.058Z,9.78
2022-09-20T03:06:47.017Z,9.79
2022-09-20T03:07:47.016Z,9.78
2022-09-20T03:08:46.993Z,9.78
2022-09-20T03:09:46.978Z,9.78
2022-09-20T03:10:46.974Z,9.76
2022-09-20T03:11:46.998Z,9.78
2022-09-20T03:12:46.949Z,9.78
2022-09-20T03:13:46.949Z,9.78
2022-09-20T03:14:46.937Z,9.78
2022-09-20T03:15:46.918Z,9.79
2022-09-20T03:16:51.915Z,9.78
2022-09-20T03:17:47.903Z,9.76
2022-09-20T03:18:46.895Z,9.78
2022-09-20T03:19:46.885Z,9.74
2022-09-20T03:20:46.871Z,9.71
2022-09-20T03:21:46.897Z,9.74
2022-09-20T03:22:46.853Z,9.74
2022-09-20T03:23:46.841Z,9.75
2022-09-20T03:24:46.848Z,9.74
2022-09-20T03:25:46.840Z,9.69
2022-09-20T03:26:46.811Z,9.74
2022-09-20T03:27:46.801Z,9.71
2022-09-20T03:28:46.820Z,9.75
2022-09-20T03:29:46.791Z,9.75
2022-09-20T03:30:46.779Z,9.72
2022-09-20T03:31:46.829Z,9.76
2022-09-20T03:32:46.732Z,9.74
2022-09-20T03:33:46.738Z,9.75
2022-09-20T03:34:46.735Z,9.74
2022-09-20T03:35:46.703Z,9.75
2022-09-20T03:36:46.692Z,9.78
2022-09-20T03:37:46.693Z,9.75
2022-09-20T03:38:46.673Z,9.78
2022-09-20T03:39:46.683Z,9.76
2022-09-20T03:40:46.923Z,9.76
2022-09-20T03:41:46.652Z,9.79
2022-09-20T03:42:46.592Z,9.79
2022-09-20T03:43:46.731Z,9.83
2022-09-20T03:44:46.656Z,9.79
2022-09-20T03:45:46.688Z,9.84
2022-09-20T03:46:46.600Z,9.86
2022-09-20T03:47:46.583Z,9.87
2022-09-20T03:48:46.593Z,9.90
2022-09-20T03:49:46.574Z,9.93
2022-09-20T03:50:46.564Z,9.91
2022-09-20T03:51:46.550Z,9.93
2022-09-20T03:52:46.534Z,9.97
2022-09-20T03:53:46.512Z,9.96
2022-09-20T03:54:46.474Z,9.93
2022-09-20T03:55:46.496Z,9.99
2022-09-20T03:56:46.498Z,10.01
2022-09-20T03:57:46.487Z,9.97
2022-09-20T03:58:46.465Z,10.01
2022-09-20T03:59:46.475Z,10.02
2022-09-20T04:00:46.487Z,10.01
2022-09-20T04:01:46.437Z,10.02
2022-09-20T04:02:46.522Z,9.99
2022-09-20T04:03:46.445Z,10.01
2022-09-20T04:04:46.433Z,10.01
2022-09-20T04:05:46.427Z,10.07
2022-09-20T04:06:46.395Z,10.04
2022-09-20T04:07:46.378Z,10.04
2022-09-20T04:08:46.366Z,10.05
2022-09-20T04:09:46.316Z,10.04
2022-09-20T04:10:46.286Z,10.05
2022-09-20T04:11:46.342Z,10.08
2022-09-20T04:12:46.329Z,10.08
2022-09-20T04:13:46.299Z,10.08
2022-09-20T04:14:46.330Z,10.09
2022-09-20T04:15:46.302Z,10.12
2022-09-20T04:16:46.344Z,10.11
2022-09-20T04:17:46.212Z,10.11
2022-09-20T04:18:46.198Z,10.12
2022-09-20T04:19:46.278Z,10.15
2022-09-20T04:20:46.197Z,10.12
2022-09-20T04:21:46.186Z,10.17
2022-09-20T04:22:46.198Z,10.14
2022-09-20T04:23:46.154Z,10.15
2022-09-20T04:24:46.179Z,10.17
2022-09-20T04:25:46.151Z,10.14
2022-09-20T04:26:46.120Z,10.17
2022-09-20T04:27:46.122Z,10.20
2022-09-20T04:28:46.111Z,10.17
2022-09-20T04:29:46.091Z,10.15
2022-09-20T04:30:46.080Z,10.15
2022-09-20T04:31:47.380Z,10.18
2022-09-20T04:32:46.069Z,10.17
2022-09-20T04:33:46.059Z,10.17
2022-09-20T04:34:46.104Z,10.18
2022-09-20T04:35:46.026Z,10.14
2022-09-20T04:36:46.022Z,10.15
2022-09-20T04:37:46.001Z,10.17
2022-09-20T04:38:46.022Z,10.15
2022-09-20T04:39:45.982Z,10.17
2022-09-20T04:40:46.034Z,10.15
2022-09-20T04:41:45.968Z,10.15
2022-09-20T04:42:45.960Z,10.17
2022-09-20T04:43:45.994Z,10.18
2022-09-20T04:44:45.924Z,10.17
2022-09-20T04:45:45.942Z,10.17
2022-09-20T04:46:45.913Z,10.15
2022-09-20T04:47:45.912Z,10.17
2022-09-20T04:48:45.917Z,10.17
2022-09-20T04:49:45.891Z,10.17
2022-09-20T04:50:45.885Z,10.15
2022-09-20T04:51:45.853Z,10.15
2022-09-20T04:52:45.858Z,10.12
2022-09-20T04:53:45.854Z,10.12
2022-09-20T04:54:45.843Z,10.14
2022-09-20T04:55:45.815Z,10.15
2022-09-20T04:56:45.804Z,10.12
2022-09-20T04:57:45.797Z,10.18
2022-09-20T04:58:45.805Z,10.17
2022-09-20T04:59:45.793Z,10.20
2022-09-20T05:00:45.784Z,10.15
2022-09-20T05:01:45.796Z,10.15
2022-09-20T05:02:45.808Z,10.17
2022-09-20T05:03:45.757Z,10.14
2022-09-20T05:04:45.727Z,10.14
2022-09-20T05:05:45.716Z,10.17
2022-09-20T05:06:45.697Z,10.15
2022-09-20T05:07:45.695Z,10.15
2022-09-20T05:08:45.726Z,10.14
2022-09-20T05:09:45.675Z,10.15
2022-09-20T05:10:45.668Z,10.11
2022-09-20T05:11:45.668Z,10.17
2022-09-20T05:12:45.650Z,10.17
2022-09-20T05:13:45.633Z,10.18
2022-09-20T05:14:45.655Z,10.20
2022-09-20T05:15:45.617Z,10.23
2022-09-20T05:16:45.669Z,10.26
2022-09-20T05:17:45.598Z,10.27
2022-09-20T05:18:45.592Z,10.27
2022-09-20T05:19:45.588Z,10.27
2022-09-20T05:20:45.555Z,10.25
2022-09-20T05:21:45.558Z,10.27
2022-09-20T05:22:45.536Z,10.26
2022-09-20T05:23:45.546Z,10.30
2022-09-20T05:24:45.519Z,10.33
2022-09-20T05:25:45.538Z,10.38
2022-09-20T05:26:45.497Z,10.38
2022-09-20T05:27:45.510Z,10.48
2022-09-20T05:28:45.484Z,10.59
2022-09-20T05:29:45.493Z,10.78
2022-09-20T05:30:45.541Z,11.09
2022-09-20T05:31:45.494Z,11.57
2022-09-20T05:32:45.464Z,11.95
2022-09-20T05:33:45.411Z,12.29
2022-09-20T05:34:45.409Z,12.57
2022-09-20T05:35:45.393Z,12.31
2022-09-20T05:36:45.392Z,11.99
2022-09-20T05:37:45.405Z,11.75
2022-09-20T05:38:45.378Z,11.95
2022-09-20T05:39:45.366Z,12.27
2022-09-20T05:40:45.363Z,12.59
2022-09-20T05:41:45.361Z,12.74
2022-09-20T05:42:45.332Z,13.01
2022-09-20T05:43:45.316Z,12.92
2022-09-20T05:44:45.292Z,13.11
2022-09-20T05:45:45.338Z,13.20
2022-09-20T05:46:45.282Z,13.39
2022-09-20T05:47:45.292Z,13.55
2022-09-20T05:48:45.260Z,13.23
2022-09-20T05:49:45.242Z,12.75
2022-09-20T05:50:45.273Z,12.75
2022-09-20T05:51:45.239Z,12.79
2022-09-20T05:52:45.228Z,12.60
2022-09-20T05:53:45.246Z,12.37
2022-09-20T05:54:45.200Z,12.21
2022-09-20T05:55:45.219Z,12.65
2022-09-20T05:56:45.192Z,13.17
2022-09-20T05:57:45.184Z,13.52
2022-09-20T05:58:45.185Z,13.97
2022-09-20T05:59:45.176Z,14.22
2022-09-20T06:00:45.161Z,14.37
2022-09-20T06:01:45.145Z,14.02
2022-09-20T06:02:45.134Z,13.70
2022-09-20T06:03:45.128Z,13.41
2022-09-20T06:04:45.106Z,13.01
2022-09-20T06:05:45.109Z,12.60
2022-09-20T06:06:45.089Z,12.35
2022-09-20T06:07:45.080Z,12.19
2022-09-20T06:08:45.084Z,12.13
2022-09-20T06:09:45.045Z,12.12
2022-09-20T06:10:45.036Z,12.01
2022-09-20T06:11:46.756Z,11.80
2022-09-20T06:12:45.042Z,11.76
2022-09-20T06:13:45.008Z,11.51
2022-09-20T06:14:45.010Z,11.49
2022-09-20T06:15:44.998Z,11.55
2022-09-20T06:16:44.983Z,11.58
2022-09-20T06:17:44.950Z,11.58
2022-09-20T06:18:44.964Z,11.55
2022-09-20T06:19:44.939Z,11.57
2022-09-20T06:20:44.927Z,11.55
2022-09-20T06:21:44.910Z,11.52
2022-09-20T06:22:44.932Z,11.52
2022-09-20T06:23:44.900Z,11.55
2022-09-20T06:24:44.898Z,11.52
2022-09-20T06:25:44.885Z,11.46
2022-09-20T06:26:44.906Z,11.43
2022-09-20T06:27:44.844Z,11.42
2022-09-20T06:28:44.843Z,11.46
2022-09-20T06:29:44.841Z,11.43
2022-09-20T06:30:44.924Z,11.46
2022-09-20T06:31:44.811Z,11.46
2022-09-20T06:32:44.812Z,11.44
2022-09-20T06:33:44.790Z,11.46
2022-09-20T06:34:44.781Z,11.49
2022-09-20T06:35:44.792Z,11.46
2022-09-20T06:36:44.762Z,11.43
2022-09-20T06:37:44.763Z,11.42
2022-09-20T06:38:44.757Z,11.40
2022-09-20T06:39:44.744Z,11.44
2022-09-20T06:40:44.713Z,11.54
2022-09-20T06:41:44.756Z,11.61
2022-09-20T06:42:44.710Z,11.67
2022-09-20T06:43:44.715Z,11.72
2022-09-20T06:44:44.669Z,11.78
2022-09-20T06:45:44.684Z,11.72
2022-09-20T06:46:44.658Z,11.70
2022-09-20T06:47:44.670Z,11.72
2022-09-20T06:48:44.656Z,11.73
2022-09-20T06:49:44.630Z,11.78
2022-09-20T06:50:44.608Z,11.72
2022-09-20T06:51:44.637Z,11.72
2022-09-20T06:52:44.616Z,11.69
2022-09-20T06:53:44.600Z,11.72
2022-09-20T06:54:44.608Z,11.72
2022-09-20T06:55:44.576Z,11.76
2022-09-20T06:56:44.583Z,11.82
2022-09-20T06:57:44.543Z,11.83
2022-09-20T06:58:44.550Z,11.96
2022-09-20T06:59:44.544Z,12.02
2022-09-20T07:00:44.540Z,12.12
2022-09-20T07:01:44.575Z,12.13
2022-09-20T07:02:44.512Z,12.14
2022-09-20T07:03:44.488Z,12.16
2022-09-20T07:04:44.502Z,12.13
2022-09-20T07:05:44.467Z,12.09
2022-09-20T07:06:44.458Z,12.04
2022-09-20T07:07:44.436Z,11.91
2022-09-20T07:08:44.442Z,11.86
2022-09-20T07:09:44.418Z,11.88
2022-09-20T07:10:44.418Z,11.88
2022-09-20T07:11:44.393Z,11.83
2022-09-20T07:12:44.380Z,11.75
2022-09-20T07:13:44.378Z,11.64
2022-09-20T07:14:44.403Z,11.60
2022-09-20T07:15:44.350Z,11.65
2022-09-20T07:16:44.440Z,11.70
2022-09-20T07:17:44.321Z,11.72
2022-09-20T07:18:44.354Z,11.70
2022-09-20T07:19:44.311Z,11.73
2022-09-20T07:20:44.305Z,11.67
2022-09-20T07:21:44.336Z,11.64
2022-09-20T07:22:44.281Z,11.64
2022-09-20T07:23:44.283Z,11.57
2022-09-20T07:24:44.251Z,11.55
2022-09-20T07:25:44.267Z,11.52
2022-09-20T07:26:44.232Z,11.44
2022-09-20T07:27:44.237Z,11.42
2022-09-20T07:28:44.217Z,11.44
2022-09-20T07:29:44.214Z,11.47
2022-09-20T07:30:44.229Z,11.51
2022-09-20T07:31:44.302Z,11.52
2022-09-20T07:32:44.180Z,11.58
2022-09-20T07:33:44.187Z,11.73
2022-09-20T07:34:44.156Z,11.80
2022-09-20T07:35:44.169Z,11.82
2022-09-20T07:36:44.125Z,11.79
2022-09-20T07:37:44.118Z,11.76
2022-09-20T07:38:44.103Z,11.75
2022-09-20T07:39:44.092Z,11.75
2022-09-20T07:40:44.104Z,11.69
2022-09-20T07:41:44.133Z,11.79
2022-09-20T07:42:44.096Z,11.88
2022-09-20T07:43:44.053Z,11.88
2022-09-20T07:44:44.046Z,11.95
2022-09-20T07:45:44.113Z,11.99
2022-09-20T07:46:44.015Z,12.05
2022-09-20T07:47:44.012Z,12.14
2022-09-20T07:48:43.998Z,12.20
2022-09-20T07:49:43.991Z,12.23
2022-09-20T07:50:44.005Z,12.29
2022-09-20T07:51:43.976Z,12.35
2022-09-20T07:52:43.960Z,12.41
2022-09-20T07:53:43.979Z,12.49
2022-09-20T07:54:43.941Z,12.46
2022-09-20T07:55:43.958Z,12.57
2022-09-20T07:56:43.918Z,12.59
2022-09-20T07:57:43.913Z,12.50
2022-09-20T07:58:46.322Z,12.47
2022-09-20T07:59:43.931Z,12.46
2022-09-20T08:00:43.915Z,12.56
2022-09-20T08:01:43.863Z,12.62
2022-09-20T08:02:43.881Z,12.67
2022-09-20T08:03:43.894Z,12.77
2022-09-20T08:04:43.851Z,12.79
2022-09-20T08:05:43.836Z,12.83
2022-09-20T08:06:43.812Z,12.71
2022-09-20T08:07:43.799Z,12.87
2022-09-20T08:08:43.790Z,12.95
2022-09-20T08:09:43.772Z,13.04
2022-09-20T08:10:43.786Z,13.17
2022-09-20T08:11:43.769Z,13.05
2022-09-20T08:14:44.733Z,13.19
2022-09-20T08:15:43.715Z,13.36
2022-09-20T08:16:43.805Z,13.42
2022-09-20T08:17:43.736Z,13.36
2022-09-20T08:18:43.705Z,13.36
2022-09-20T08:19:43.703Z,13.14
2022-09-20T08:20:43.679Z,13.10
2022-09-20T08:21:43.708Z,13.15
2022-09-20T08:22:43.667Z,13.23
2022-09-20T08:23:43.625Z,13.30
2022-09-20T08:24:43.622Z,13.22
2022-09-20T08:25:43.616Z,13.33
2022-09-20T08:26:43.657Z,13.45
2022-09-20T08:27:43.579Z,13.59
2022-09-20T08:28:43.602Z,13.70
2022-09-20T08:29:43.575Z,13.71
2022-09-20T08:30:43.552Z,13.77
2022-09-20T08:31:43.672Z,13.75
2022-09-20T08:32:43.557Z,13.66
2022-09-20T08:33:43.540Z,13.54
2022-09-20T08:34:43.505Z,13.62
2022-09-20T08:35:43.532Z,13.78
2022-09-20T08:36:43.526Z,13.82
2022-09-20T08:37:43.522Z,13.82
2022-09-20T08:39:59.842Z,13.81
2022-09-20T08:40:44.478Z,13.87
2022-09-20T08:41:43.468Z,13.96
2022-09-20T08:42:44.736Z,13.78
2022-09-20T08:43:45.497Z,13.81
2022-09-20T08:44:45.420Z,13.87
2022-09-20T08:45:43.477Z,13.85
2022-09-20T08:46:43.387Z,13.92
2022-09-20T08:47:43.404Z,13.84
2022-09-20T08:48:43.371Z,13.89
2022-09-20T08:49:46.169Z,13.96
2022-09-20T08:50:43.353Z,14.06
2022-09-20T08:51:48.490Z,14.12
2022-09-20T08:52:44.376Z,14.25
2022-09-20T08:53:48.793Z,14.29
2022-09-20T08:54:44.323Z,14.22
2022-09-20T08:55:43.292Z,14.25
2022-09-20T08:56:43.334Z,14.29
2022-09-20T08:57:43.376Z,14.36
2022-09-20T08:58:43.289Z,14.45
2022-09-20T08:59:43.265Z,14.47
2022-09-20T09:00:43.244Z,14.51
2022-09-20T09:01:43.248Z,14.45
2022-09-20T09:02:43.452Z,14.39
2022-09-20T09:03:43.224Z,14.29
2022-09-20T09:04:43.197Z,14.24
2022-09-20T09:05:43.211Z,14.40
2022-09-20T09:06:43.173Z,14.43
2022-09-20T09:07:43.186Z,14.60
2022-09-20T09:08:43.189Z,14.45
2022-09-20T09:09:43.155Z,14.25
2022-09-20T09:10:43.308Z,14.35
2022-09-20T09:11:45.753Z,14.46
2022-09-20T09:12:48.689Z,14.35
2022-09-20T09:13:44.139Z,14.40
2022-09-20T09:14:43.095Z,14.46
2022-09-20T09:15:43.082Z,14.51
2022-09-20T09:16:43.138Z,14.58
2022-09-20T09:17:43.067Z,14.65
2022-09-20T09:18:43.091Z,14.80
2022-09-20T09:19:43.058Z,14.96
2022-09-20T09:20:43.052Z,14.94
2022-09-20T09:21:43.038Z,15.06
2022-09-20T09:22:43.020Z,15.31
2022-09-20T09:23:43.018Z,15.34
2022-09-20T09:24:43.015Z,15.10
2022-09-20T09:25:43.028Z,14.83
2022-09-20T09:26:42.971Z,14.81
2022-09-20T09:27:42.966Z,14.78
2022-09-20T09:28:43.019Z,14.86
2022-09-20T09:29:42.961Z,14.91
2022-09-20T09:30:42.962Z,14.96
2022-09-20T09:31:42.964Z,14.98
2022-09-20T09:32:42.902Z,15.17
2022-09-20T09:33:42.949Z,15.21
2022-09-20T09:34:42.928Z,15.32
2022-09-20T09:35:42.872Z,15.29
2022-09-20T09:36:42.858Z,15.32
2022-09-20T09:37:42.861Z,15.36
2022-09-20T09:38:42.870Z,15.41
2022-09-20T09:39:42.864Z,15.35
2022-09-20T09:40:42.853Z,15.27
2022-09-20T09:41:42.816Z,15.21
2022-09-20T09:42:42.842Z,15.41
2022-09-20T09:43:42.822Z,15.62
2022-09-20T09:44:42.773Z,15.94
2022-09-20T09:45:42.774Z,15.76
2022-09-20T09:46:42.764Z,15.31
2022-09-20T09:47:42.755Z,15.01
2022-09-20T09:48:42.773Z,15.28
2022-09-20T09:49:42.735Z,15.49
2022-09-20T09:50:42.724Z,15.60
2022-09-20T09:51:42.705Z,15.87
2022-09-20T09:52:42.714Z,15.87
2022-09-20T09:53:42.728Z,15.74
2022-09-20T09:54:42.667Z,15.65
2022-09-20T09:55:42.656Z,15.83
2022-09-20T09:56:42.668Z,15.75
2022-09-20T09:57:42.642Z,15.87
2022-09-20T09:58:42.651Z,15.92
2022-09-20T09:59:42.618Z,15.80
2022-09-20T10:00:42.608Z,15.62
2022-09-20T10:01:42.665Z,15.43
2022-09-20T10:02:42.653Z,15.47
2022-09-20T10:03:42.608Z,15.64
2022-09-20T10:04:42.567Z,15.69
2022-09-20T10:05:42.573Z,15.84
2022-09-20T10:06:42.581Z,15.87
2022-09-20T10:07:42.572Z,15.84
2022-09-20T10:08:42.540Z,15.74
2022-09-20T10:09:42.517Z,15.80
2022-09-20T10:10:42.533Z,16.23
2022-09-20T10:11:42.491Z,16.67
2022-09-20T10:12:42.479Z,16.73
2022-09-20T10:13:42.502Z,16.64
2022-09-20T10:14:42.445Z,16.39
2022-09-20T10:15:42.462Z,16.33
2022-09-20T10:16:42.746Z,16.43
2022-09-20T10:17:42.458Z,16.49
2022-09-20T10:18:42.428Z,16.48
2022-09-20T10:19:42.441Z,16.38
2022-09-20T10:20:42.452Z,16.42
2022-09-20T10:21:42.413Z,16.34
2022-09-20T10:22:42.390Z,16.35
2022-09-20T10:24:43.421Z,16.75
2022-09-20T10:25:42.353Z,16.86
2022-09-20T10:26:42.325Z,16.98
2022-09-20T10:27:42.343Z,16.89
2022-09-20T10:28:42.337Z,16.64
2022-09-20T10:29:42.333Z,16.67
2022-09-20T10:30:42.363Z,16.57
2022-09-20T10:31:42.304Z,16.48
2022-09-20T10:32:42.278Z,16.28
2022-09-20T10:33:42.296Z,16.38
2022-09-20T10:34:42.259Z,16.46
2022-09-20T10:35:42.257Z,16.30
2022-09-20T10:36:42.223Z,16.07
2022-09-20T10:37:44.989Z,16.02
2022-09-20T10:38:43.217Z,16.04
2022-09-20T10:39:42.201Z,16.07
2022-09-20T10:40:42.220Z,16.00
2022-09-20T10:41:42.185Z,15.82
2022-09-20T10:42:42.169Z,15.72
2022-09-20T10:43:42.187Z,15.64
2022-09-20T10:44:42.141Z,15.44
2022-09-20T10:46:14.093Z,15.27
2022-09-20T10:46:43.168Z,15.03
2022-09-20T10:47:42.140Z,14.89
2022-09-20T10:48:42.120Z,14.73
2022-09-20T10:49:42.092Z,14.51
2022-09-20T10:50:42.072Z,14.43
2022-09-20T10:51:42.074Z,14.32
2022-09-20T10:52:42.104Z,14.35
2022-09-20T10:53:42.070Z,14.33
2022-09-20T10:54:42.032Z,14.28
2022-09-20T10:55:42.016Z,14.29
2022-09-20T10:56:42.012Z,14.27
2022-09-20T10:57:46.451Z,14.27
2022-09-20T10:58:42.012Z,14.24
2022-09-20T10:59:41.982Z,14.21
2022-09-20T11:00:42.014Z,14.10
2022-09-20T11:01:41.981Z,14.14
2022-09-20T11:02:41.952Z,14.09
2022-09-20T11:03:41.943Z,14.12
2022-09-20T11:04:41.939Z,14.18
2022-09-20T11:05:41.954Z,14.22
2022-09-20T11:06:41.915Z,14.24
2022-09-20T11:07:41.900Z,14.29
2022-09-20T11:08:41.929Z,14.27
2022-09-20T11:09:41.935Z,14.18
2022-09-20T11:10:41.886Z,14.10
2022-09-20T11:11:41.897Z,14.00
2022-09-20T11:12:41.874Z,13.96
2022-09-20T11:13:41.845Z,13.67
2022-09-20T11:14:41.825Z,13.19
2022-09-20T11:15:41.827Z,12.74
2022-09-20T11:16:41.892Z,12.32
2022-09-20T11:17:41.837Z,12.05
2022-09-20T11:18:41.838Z,11.85
2022-09-20T11:19:41.805Z,11.75
2022-09-20T11:20:41.752Z,11.72
2022-09-20T11:21:41.764Z,11.62
2022-09-20T11:22:41.767Z,11.60
2022-09-20T11:23:41.729Z,11.62
2022-09-20T11:24:41.714Z,11.65
2022-09-20T11:25:41.709Z,11.62
2022-09-20T11:26:41.721Z,11.64
2022-09-20T11:27:41.679Z,11.61
2022-09-20T11:28:41.669Z,11.61
2022-09-20T11:29:41.688Z,11.65
2022-09-20T11:30:41.678Z,11.65
2022-09-20T11:31:41.736Z,11.69
2022-09-20T11:32:41.639Z,11.80
2022-09-20T11:33:41.736Z,11.82
2022-09-20T11:34:41.631Z,11.83
2022-09-20T11:35:41.606Z,11.88
2022-09-20T11:36:41.609Z,12.01
2022-09-20T11:37:41.601Z,12.04
2022-09-20T11:38:41.573Z,12.10
2022-09-20T11:39:41.651Z,12.19
2022-09-20T11:40:41.629Z,12.24
2022-09-20T11:41:41.564Z,12.37
2022-09-20T11:42:41.545Z,12.41
2022-09-20T11:43:41.558Z,12.53
2022-09-20T11:44:41.522Z,12.59
2022-09-20T11:45:41.550Z,12.67
2022-09-20T11:46:41.500Z,12.71
2022-09-20T11:47:54.638Z,12.77
2022-09-20T11:48:42.462Z,12.82
2022-09-20T11:49:41.470Z,12.86
2022-09-20T11:50:41.462Z,12.92
2022-09-20T11:51:41.454Z,12.96
2022-09-20T11:52:41.695Z,13.05
2022-09-20T11:53:41.409Z,13.03
2022-09-20T11:54:41.603Z,13.04
2022-09-20T11:55:41.599Z,13.04
2022-09-20T11:56:41.382Z,13.08
2022-09-20T11:57:41.386Z,13.05
2022-09-20T11:58:41.383Z,13.10
2022-09-20T11:59:41.406Z,13.07
2022-09-20T12:00:41.344Z,13.11
2022-09-20T12:01:41.352Z,13.08
2022-09-20T12:02:41.411Z,13.05
2022-09-20T12:03:41.364Z,13.04
2022-09-20T12:04:41.704Z,13.00
2022-09-20T12:05:41.327Z,12.97
2022-09-20T12:06:41.338Z,13.08
2022-09-20T12:07:41.270Z,13.17
2022-09-20T12:08:41.286Z,13.41
2022-09-20T12:09:41.260Z,13.62
2022-09-20T12:10:41.242Z,13.71
2022-09-20T12:11:41.226Z,13.81
2022-09-20T12:12:41.255Z,14.02
2022-09-20T12:13:41.222Z,13.89
2022-09-20T12:14:41.368Z,13.78
2022-09-20T12:15:41.297Z,13.78
2022-09-20T12:16:41.229Z,13.88
2022-09-20T12:17:41.187Z,13.97
2022-09-20T12:18:41.159Z,14.09
2022-09-20T12:19:41.148Z,14.32
2022-09-20T12:20:41.129Z,14.50
2022-09-20T12:21:41.113Z,14.60
2022-09-20T12:22:41.101Z,14.73
2022-09-20T12:23:41.116Z,14.83
2022-09-20T12:24:45.344Z,15.01
2022-09-20T12:25:41.082Z,15.11
2022-09-20T12:26:41.061Z,15.27
2022-09-20T12:27:41.054Z,15.03
2022-09-20T12:28:41.055Z,14.88
2022-09-20T12:29:41.032Z,14.89
2022-09-20T12:30:41.024Z,14.80
2022-09-20T12:31:41.058Z,14.98
2022-09-20T12:32:41.114Z,15.01
2022-09-20T12:33:40.987Z,15.09
2022-09-20T12:34:41.009Z,14.89
2022-09-20T12:35:40.970Z,14.91
2022-09-20T12:36:41.029Z,15.02
2022-09-20T12:37:40.952Z,15.13
2022-09-20T12:38:40.957Z,15.32
2022-09-20T12:39:40.925Z,15.64
2022-09-20T12:40:40.960Z,15.84
2022-09-20T12:41:40.958Z,15.86
2022-09-20T12:42:40.998Z,15.62
2022-09-20T12:43:40.895Z,15.56
2022-09-20T12:44:40.896Z,15.50
2022-09-20T12:45:40.942Z,15.09
2022-09-20T12:46:40.856Z,14.81
2022-09-20T12:47:40.857Z,15.11
2022-09-20T12:48:40.828Z,15.28
2022-09-20T12:49:40.816Z,15.41
2022-09-20T12:50:40.816Z,15.65
2022-09-20T12:51:40.797Z,15.69
2022-09-20T12:52:40.805Z,15.78
2022-09-20T12:53:40.905Z,15.93
2022-09-20T12:54:40.789Z,15.90
2022-09-20T12:55:40.777Z,15.82
2022-09-20T12:56:40.772Z,15.86
2022-09-20T12:57:40.928Z,15.84
2022-09-20T12:58:40.707Z,15.76
2022-09-20T12:59:40.753Z,15.60
2022-09-20T13:00:40.828Z,15.59
2022-09-20T13:01:40.762Z,15.35
2022-09-20T13:02:40.764Z,15.35
2022-09-20T13:03:40.694Z,15.36